sensor_id;sensor_type;location;lat;lon;timestamp;temperature;humidity
11284;DHT22;5698;47.332;11.180;2023-03-21T00:01:20;4.00;99.90
11284;DHT22;5698;47.332;11.180;2023-03-21T00:03:47;3.90;99.90
11284;DHT22;5698;47.332;11.180;2023-03-21T00:06:16;3.80;99.90
11284;DHT22;5698;47.332;11.180;2023-03-21T00:08:43;3.80;99.90
11284;DHT22;5698;47.332;11.180;2023-03-21T00:11:12;3.90;99.90
11284;DHT22;5698;47.332;11.180;2023-03-21T00:13:39;3.90;99.90
11284;DHT22;5698;47.332;11.180;2023-03-21T00:16:08;4.00;99.90
11284;DHT22;5698;47.332;11.180;2023-03-21T00:18:41;4.10;99.90
11284;DHT22;5698;47.332;11.180;2023-03-21T00:21:12;4.10;99.90
11284;DHT22;5698;47.332;11.180;2023-03-21T00:23:41;4.00;99.90
11284;DHT22;5698;47.332;11.180;2023-03-21T00:26:08;4.00;99.90
11284;DHT22;5698;47.332;11.180;2023-03-21T00:28:37;4.00;99.90
11284;DHT22;5698;47.332;11.180;2023-03-21T00:31:05;4.10;99.90
11284;DHT22;5698;47.332;11.180;2023-03-21T00:33:32;4.10;99.90
11284;DHT22;5698;47.332;11.180;2023-03-21T00:36:00;4.00;99.90
11284;DHT22;5698;47.332;11.180;2023-03-21T00:38:28;4.00;99.90
11284;DHT22;5698;47.332;11.180;2023-03-21T00:40:55;4.00;99.90
11284;DHT22;5698;47.332;11.180;2023-03-21T00:43:22;4.00;99.90
11284;DHT22;5698;47.332;11.180;2023-03-21T00:45:56;4.00;99.90
11284;DHT22;5698;47.332;11.180;2023-03-21T00:48:24;4.00;99.90
11284;DHT22;5698;47.332;11.180;2023-03-21T00:50:52;4.00;99.90
11284;DHT22;5698;47.332;11.180;2023-03-21T00:53:20;4.00;99.90
11284;DHT22;5698;47.332;11.180;2023-03-21T00:55:47;3.90;99.90
11284;DHT22;5698;47.332;11.180;2023-03-21T00:58:14;3.80;99.90
11284;DHT22;5698;47.332;11.180;2023-03-21T01:00:41;3.70;99.90
11284;DHT22;5698;47.332;11.180;2023-03-21T01:03:11;3.70;99.90
11284;DHT22;5698;47.332;11.180;2023-03-21T01:05:41;3.70;99.90
11284;DHT22;5698;47.332;11.180;2023-03-21T01:08:26;3.90;99.90
11284;DHT22;5698;47.332;11.180;2023-03-21T01:10:54;4.00;99.90
11284;DHT22;5698;47.332;11.180;2023-03-21T01:13:23;4.10;99.90
11284;DHT22;5698;47.332;11.180;2023-03-21T01:15:53;4.10;99.90
11284;DHT22;5698;47.332;11.180;2023-03-21T01:18:25;4.10;99.90
11284;DHT22;5698;47.332;11.180;2023-03-21T01:20:54;4.10;99.90
11284;DHT22;5698;47.332;11.180;2023-03-21T01:23:22;4.00;99.90
11284;DHT22;5698;47.332;11.180;2023-03-21T01:25:50;4.00;99.90
11284;DHT22;5698;47.332;11.180;2023-03-21T01:28:18;3.90;99.90
11284;DHT22;5698;47.332;11.180;2023-03-21T01:30:45;3.90;99.90
11284;DHT22;5698;47.332;11.180;2023-03-21T01:33:12;3.90;99.90
11284;DHT22;5698;47.332;11.180;2023-03-21T01:35:41;4.00;99.90
11284;DHT22;5698;47.332;11.180;2023-03-21T01:38:08;4.10;99.90
11284;DHT22;5698;47.332;11.180;2023-03-21T01:40:35;4.10;99.90
11284;DHT22;5698;47.332;11.180;2023-03-21T01:43:03;4.10;99.90
11284;DHT22;5698;47.332;11.180;2023-03-21T01:48:36;4.00;99.90
11284;DHT22;5698;47.332;11.180;2023-03-21T01:51:07;3.90;99.90
11284;DHT22;5698;47.332;11.180;2023-03-21T01:53:36;4.00;99.90
11284;DHT22;5698;47.332;11.180;2023-03-21T01:56:09;4.10;99.90
11284;DHT22;5698;47.332;11.180;2023-03-21T01:58:38;4.10;99.90
11284;DHT22;5698;47.332;11.180;2023-03-21T02:01:06;4.10;99.90
11284;DHT22;5698;47.332;11.180;2023-03-21T02:03:33;4.10;99.90
11284;DHT22;5698;47.332;11.180;2023-03-21T02:06:07;4.10;99.90
11284;DHT22;5698;47.332;11.180;2023-03-21T02:08:35;4.20;99.90
11284;DHT22;5698;47.332;11.180;2023-03-21T02:11:03;4.20;99.90
11284;DHT22;5698;47.332;11.180;2023-03-21T02:13:30;4.30;99.90
11284;DHT22;5698;47.332;11.180;2023-03-21T02:16:00;4.30;99.90
11284;DHT22;5698;47.332;11.180;2023-03-21T02:18:34;4.30;99.90
11284;DHT22;5698;47.332;11.180;2023-03-21T02:21:24;4.20;99.90
11284;DHT22;5698;47.332;11.180;2023-03-21T02:26:59;4.20;99.90
11284;DHT22;5698;47.332;11.180;2023-03-21T02:30:01;4.20;99.90
11284;DHT22;5698;47.332;11.180;2023-03-21T02:32:38;4.20;99.90
11284;DHT22;5698;47.332;11.180;2023-03-21T02:35:22;4.20;99.90
11284;DHT22;5698;47.332;11.180;2023-03-21T02:37:55;4.10;99.90
11284;DHT22;5698;47.332;11.180;2023-03-21T02:40:29;4.10;99.90
11284;DHT22;5698;47.332;11.180;2023-03-21T02:43:03;4.00;99.90
11284;DHT22;5698;47.332;11.180;2023-03-21T02:45:37;4.00;99.90
11284;DHT22;5698;47.332;11.180;2023-03-21T02:48:08;4.10;99.90
11284;DHT22;5698;47.332;11.180;2023-03-21T02:50:40;4.10;99.90
11284;DHT22;5698;47.332;11.180;2023-03-21T02:53:11;4.10;99.90
11284;DHT22;5698;47.332;11.180;2023-03-21T02:55:39;4.00;99.90
11284;DHT22;5698;47.332;11.180;2023-03-21T02:58:10;4.00;99.90
11284;DHT22;5698;47.332;11.180;2023-03-21T03:00:38;4.00;99.90
11284;DHT22;5698;47.332;11.180;2023-03-21T03:03:07;3.90;99.90
11284;DHT22;5698;47.332;11.180;2023-03-21T03:05:39;3.90;99.90
11284;DHT22;5698;47.332;11.180;2023-03-21T03:08:20;4.00;99.90
11284;DHT22;5698;47.332;11.180;2023-03-21T03:10:59;4.00;99.90
11284;DHT22;5698;47.332;11.180;2023-03-21T03:13:41;4.10;99.90
11284;DHT22;5698;47.332;11.180;2023-03-21T03:16:22;4.10;99.90
11284;DHT22;5698;47.332;11.180;2023-03-21T03:18:55;4.00;99.90
11284;DHT22;5698;47.332;11.180;2023-03-21T03:21:28;4.00;99.90
11284;DHT22;5698;47.332;11.180;2023-03-21T03:24:01;3.90;99.90
11284;DHT22;5698;47.332;11.180;2023-03-21T03:26:32;3.90;99.90
11284;DHT22;5698;47.332;11.180;2023-03-21T03:29:03;3.90;99.90
11284;DHT22;5698;47.332;11.180;2023-03-21T03:31:34;3.90;99.90
11284;DHT22;5698;47.332;11.180;2023-03-21T03:34:05;3.90;99.90
11284;DHT22;5698;47.332;11.180;2023-03-21T03:36:36;3.90;99.90
11284;DHT22;5698;47.332;11.180;2023-03-21T03:39:07;3.80;99.90
11284;DHT22;5698;47.332;11.180;2023-03-21T03:41:42;3.70;99.90
11284;DHT22;5698;47.332;11.180;2023-03-21T03:44:10;3.80;99.90
11284;DHT22;5698;47.332;11.180;2023-03-21T03:46:44;3.80;99.90
11284;DHT22;5698;47.332;11.180;2023-03-21T03:49:16;3.80;99.90
11284;DHT22;5698;47.332;11.180;2023-03-21T03:51:50;3.80;99.90
11284;DHT22;5698;47.332;11.180;2023-03-21T03:54:23;3.80;99.90
11284;DHT22;5698;47.332;11.180;2023-03-21T03:56:53;3.80;99.90
11284;DHT22;5698;47.332;11.180;2023-03-21T03:59:20;3.70;99.90
11284;DHT22;5698;47.332;11.180;2023-03-21T04:01:48;3.70;99.90
11284;DHT22;5698;47.332;11.180;2023-03-21T04:04:15;3.80;99.90
11284;DHT22;5698;47.332;11.180;2023-03-21T04:06:43;3.80;99.90
11284;DHT22;5698;47.332;11.180;2023-03-21T04:09:16;3.80;99.90
11284;DHT22;5698;47.332;11.180;2023-03-21T04:11:45;3.80;99.90
11284;DHT22;5698;47.332;11.180;2023-03-21T04:14:12;3.80;99.90
11284;DHT22;5698;47.332;11.180;2023-03-21T04:16:39;3.90;99.90
11284;DHT22;5698;47.332;11.180;2023-03-21T04:19:06;3.90;99.90
11284;DHT22;5698;47.332;11.180;2023-03-21T04:21:33;3.90;99.90
11284;DHT22;5698;47.332;11.180;2023-03-21T04:24:01;3.80;99.90
11284;DHT22;5698;47.332;11.180;2023-03-21T04:26:28;3.80;99.90
11284;DHT22;5698;47.332;11.180;2023-03-21T04:28:59;3.70;99.90
11284;DHT22;5698;47.332;11.180;2023-03-21T04:31:26;3.60;99.90
11284;DHT22;5698;47.332;11.180;2023-03-21T04:33:55;3.50;99.90
11284;DHT22;5698;47.332;11.180;2023-03-21T04:36:24;3.50;99.90
11284;DHT22;5698;47.332;11.180;2023-03-21T04:38:53;3.60;99.90
11284;DHT22;5698;47.332;11.180;2023-03-21T04:41:21;3.60;99.90
11284;DHT22;5698;47.332;11.180;2023-03-21T04:43:48;3.50;99.90
11284;DHT22;5698;47.332;11.180;2023-03-21T04:46:18;3.60;99.90
11284;DHT22;5698;47.332;11.180;2023-03-21T04:48:45;3.60;99.90
11284;DHT22;5698;47.332;11.180;2023-03-21T04:51:13;3.50;99.90
11284;DHT22;5698;47.332;11.180;2023-03-21T04:53:40;3.60;99.90
11284;DHT22;5698;47.332;11.180;2023-03-21T04:56:09;3.60;99.90
11284;DHT22;5698;47.332;11.180;2023-03-21T04:58:37;3.60;99.90
11284;DHT22;5698;47.332;11.180;2023-03-21T05:01:05;3.50;99.90
11284;DHT22;5698;47.332;11.180;2023-03-21T05:03:34;3.50;99.90
11284;DHT22;5698;47.332;11.180;2023-03-21T05:06:05;3.50;99.90
11284;DHT22;5698;47.332;11.180;2023-03-21T05:08:33;3.50;99.90
11284;DHT22;5698;47.332;11.180;2023-03-21T05:11:00;3.50;99.90
11284;DHT22;5698;47.332;11.180;2023-03-21T05:13:27;3.50;99.90
11284;DHT22;5698;47.332;11.180;2023-03-21T05:15:54;3.50;99.90
11284;DHT22;5698;47.332;11.180;2023-03-21T05:18:21;3.40;99.90
11284;DHT22;5698;47.332;11.180;2023-03-21T05:20:51;3.30;99.90
11284;DHT22;5698;47.332;11.180;2023-03-21T05:23:19;3.30;99.90
11284;DHT22;5698;47.332;11.180;2023-03-21T05:25:47;3.20;99.90
11284;DHT22;5698;47.332;11.180;2023-03-21T05:28:14;3.20;99.90
11284;DHT22;5698;47.332;11.180;2023-03-21T05:30:43;3.30;99.90
11284;DHT22;5698;47.332;11.180;2023-03-21T05:33:11;3.30;99.90
11284;DHT22;5698;47.332;11.180;2023-03-21T05:35:38;3.30;99.90
11284;DHT22;5698;47.332;11.180;2023-03-21T05:38:06;3.30;99.90
11284;DHT22;5698;47.332;11.180;2023-03-21T05:40:33;3.30;99.90
11284;DHT22;5698;47.332;11.180;2023-03-21T05:43:00;3.30;99.90
11284;DHT22;5698;47.332;11.180;2023-03-21T05:45:27;3.30;99.90
11284;DHT22;5698;47.332;11.180;2023-03-21T05:47:54;3.30;99.90
11284;DHT22;5698;47.332;11.180;2023-03-21T05:50:21;3.30;99.90
11284;DHT22;5698;47.332;11.180;2023-03-21T05:52:48;3.30;99.90
11284;DHT22;5698;47.332;11.180;2023-03-21T05:55:17;3.20;99.90
11284;DHT22;5698;47.332;11.180;2023-03-21T05:57:45;3.30;99.90
11284;DHT22;5698;47.332;11.180;2023-03-21T06:00:13;3.30;99.90
11284;DHT22;5698;47.332;11.180;2023-03-21T06:02:40;3.40;99.90
11284;DHT22;5698;47.332;11.180;2023-03-21T06:05:08;3.40;99.90
11284;DHT22;5698;47.332;11.180;2023-03-21T06:07:35;3.40;99.90
11284;DHT22;5698;47.332;11.180;2023-03-21T06:10:03;3.40;99.90
11284;DHT22;5698;47.332;11.180;2023-03-21T06:12:31;3.50;99.90
11284;DHT22;5698;47.332;11.180;2023-03-21T06:14:59;3.50;99.90
11284;DHT22;5698;47.332;11.180;2023-03-21T06:17:26;3.60;99.90
11284;DHT22;5698;47.332;11.180;2023-03-21T06:19:53;3.60;99.90
11284;DHT22;5698;47.332;11.180;2023-03-21T06:22:20;3.70;99.90
11284;DHT22;5698;47.332;11.180;2023-03-21T06:24:47;3.70;99.90
11284;DHT22;5698;47.332;11.180;2023-03-21T06:27:14;3.70;99.90
11284;DHT22;5698;47.332;11.180;2023-03-21T06:29:43;3.80;99.90
11284;DHT22;5698;47.332;11.180;2023-03-21T06:32:10;3.70;99.90
11284;DHT22;5698;47.332;11.180;2023-03-21T06:34:37;3.70;99.90
11284;DHT22;5698;47.332;11.180;2023-03-21T06:37:04;3.70;99.90
11284;DHT22;5698;47.332;11.180;2023-03-21T06:39:31;3.70;99.90
11284;DHT22;5698;47.332;11.180;2023-03-21T06:41:58;3.80;99.90
11284;DHT22;5698;47.332;11.180;2023-03-21T06:44:26;3.80;99.90
11284;DHT22;5698;47.332;11.180;2023-03-21T06:46:54;3.90;99.90
11284;DHT22;5698;47.332;11.180;2023-03-21T06:49:21;4.00;99.90
11284;DHT22;5698;47.332;11.180;2023-03-21T06:51:48;4.00;99.90
11284;DHT22;5698;47.332;11.180;2023-03-21T06:54:15;4.10;99.90
11284;DHT22;5698;47.332;11.180;2023-03-21T06:56:43;4.30;99.90
11284;DHT22;5698;47.332;11.180;2023-03-21T06:59:10;4.40;99.90
11284;DHT22;5698;47.332;11.180;2023-03-21T07:01:37;4.50;99.90
11284;DHT22;5698;47.332;11.180;2023-03-21T07:04:06;4.60;99.90
11284;DHT22;5698;47.332;11.180;2023-03-21T07:06:33;4.70;99.90
11284;DHT22;5698;47.332;11.180;2023-03-21T07:09:00;4.80;99.90
11284;DHT22;5698;47.332;11.180;2023-03-21T07:11:28;4.90;99.90
11284;DHT22;5698;47.332;11.180;2023-03-21T07:13:56;4.90;99.90
11284;DHT22;5698;47.332;11.180;2023-03-21T07:16:23;5.00;99.90
11284;DHT22;5698;47.332;11.180;2023-03-21T07:18:50;5.00;99.90
11284;DHT22;5698;47.332;11.180;2023-03-21T07:21:19;4.90;99.90
11284;DHT22;5698;47.332;11.180;2023-03-21T07:23:46;4.90;99.90
11284;DHT22;5698;47.332;11.180;2023-03-21T07:26:14;4.90;99.90
11284;DHT22;5698;47.332;11.180;2023-03-21T07:28:43;5.00;99.90
11284;DHT22;5698;47.332;11.180;2023-03-21T07:31:13;5.00;99.90
11284;DHT22;5698;47.332;11.180;2023-03-21T07:33:40;5.10;99.90
11284;DHT22;5698;47.332;11.180;2023-03-21T07:36:10;5.10;99.90
11284;DHT22;5698;47.332;11.180;2023-03-21T07:38:39;5.10;99.90
11284;DHT22;5698;47.332;11.180;2023-03-21T07:41:06;5.10;99.90
11284;DHT22;5698;47.332;11.180;2023-03-21T07:43:34;5.10;99.90
11284;DHT22;5698;47.332;11.180;2023-03-21T07:46:01;5.20;99.90
11284;DHT22;5698;47.332;11.180;2023-03-21T07:48:29;5.30;99.90
11284;DHT22;5698;47.332;11.180;2023-03-21T07:50:56;5.40;99.90
11284;DHT22;5698;47.332;11.180;2023-03-21T07:53:23;5.40;99.90
11284;DHT22;5698;47.332;11.180;2023-03-21T07:55:52;5.50;99.90
11284;DHT22;5698;47.332;11.180;2023-03-21T07:58:21;5.60;99.90
11284;DHT22;5698;47.332;11.180;2023-03-21T08:00:48;5.70;99.90
11284;DHT22;5698;47.332;11.180;2023-03-21T08:03:16;5.80;99.90
11284;DHT22;5698;47.332;11.180;2023-03-21T08:05:43;6.00;99.90
11284;DHT22;5698;47.332;11.180;2023-03-21T08:08:11;6.00;99.90
11284;DHT22;5698;47.332;11.180;2023-03-21T08:10:38;6.20;99.90
11284;DHT22;5698;47.332;11.180;2023-03-21T08:13:06;6.20;99.90
11284;DHT22;5698;47.332;11.180;2023-03-21T08:15:33;6.30;99.90
11284;DHT22;5698;47.332;11.180;2023-03-21T08:18:00;6.30;99.90
11284;DHT22;5698;47.332;11.180;2023-03-21T08:20:27;6.40;99.90
11284;DHT22;5698;47.332;11.180;2023-03-21T08:22:54;6.50;99.90
11284;DHT22;5698;47.332;11.180;2023-03-21T08:25:21;6.50;99.90
11284;DHT22;5698;47.332;11.180;2023-03-21T08:27:49;6.40;99.90
11284;DHT22;5698;47.332;11.180;2023-03-21T08:30:19;6.40;99.90
11284;DHT22;5698;47.332;11.180;2023-03-21T08:32:47;6.50;99.90
11284;DHT22;5698;47.332;11.180;2023-03-21T08:35:17;6.50;99.90
11284;DHT22;5698;47.332;11.180;2023-03-21T08:37:45;6.50;99.90
11284;DHT22;5698;47.332;11.180;2023-03-21T08:40:13;6.50;99.90
11284;DHT22;5698;47.332;11.180;2023-03-21T08:42:41;6.60;99.90
11284;DHT22;5698;47.332;11.180;2023-03-21T08:45:09;6.60;99.90
11284;DHT22;5698;47.332;11.180;2023-03-21T08:47:38;6.60;99.90
11284;DHT22;5698;47.332;11.180;2023-03-21T08:50:07;6.70;99.90
11284;DHT22;5698;47.332;11.180;2023-03-21T08:52:34;6.70;99.90
11284;DHT22;5698;47.332;11.180;2023-03-21T08:55:02;6.70;99.90
11284;DHT22;5698;47.332;11.180;2023-03-21T08:57:29;6.70;99.90
11284;DHT22;5698;47.332;11.180;2023-03-21T08:59:56;6.70;99.90
11284;DHT22;5698;47.332;11.180;2023-03-21T09:02:23;6.70;99.90
11284;DHT22;5698;47.332;11.180;2023-03-21T09:04:52;6.80;99.90
11284;DHT22;5698;47.332;11.180;2023-03-21T09:07:19;6.90;99.90
11284;DHT22;5698;47.332;11.180;2023-03-21T09:09:46;7.00;99.90
11284;DHT22;5698;47.332;11.180;2023-03-21T09:12:16;7.10;99.90
11284;DHT22;5698;47.332;11.180;2023-03-21T09:14:43;7.10;99.90
11284;DHT22;5698;47.332;11.180;2023-03-21T09:17:11;7.20;99.90
11284;DHT22;5698;47.332;11.180;2023-03-21T09:19:38;7.30;99.90
11284;DHT22;5698;47.332;11.180;2023-03-21T09:22:07;7.30;99.90
11284;DHT22;5698;47.332;11.180;2023-03-21T09:24:39;7.30;99.90
11284;DHT22;5698;47.332;11.180;2023-03-21T09:27:07;7.30;99.90
11284;DHT22;5698;47.332;11.180;2023-03-21T09:29:35;7.40;99.90
11284;DHT22;5698;47.332;11.180;2023-03-21T09:32:02;7.50;99.90
11284;DHT22;5698;47.332;11.180;2023-03-21T09:34:31;7.50;99.90
11284;DHT22;5698;47.332;11.180;2023-03-21T09:36:58;7.50;99.90
11284;DHT22;5698;47.332;11.180;2023-03-21T09:39:28;7.60;99.90
11284;DHT22;5698;47.332;11.180;2023-03-21T09:44:53;7.70;99.90
11284;DHT22;5698;47.332;11.180;2023-03-21T09:47:26;7.80;99.90
11284;DHT22;5698;47.332;11.180;2023-03-21T09:50:02;8.00;99.90
11284;DHT22;5698;47.332;11.180;2023-03-21T09:52:41;8.10;99.90
11284;DHT22;5698;47.332;11.180;2023-03-21T09:55:18;8.20;99.90
11284;DHT22;5698;47.332;11.180;2023-03-21T09:57:49;8.30;99.90
11284;DHT22;5698;47.332;11.180;2023-03-21T10:00:24;8.30;99.90
11284;DHT22;5698;47.332;11.180;2023-03-21T10:02:56;8.20;99.90
11284;DHT22;5698;47.332;11.180;2023-03-21T10:05:28;8.20;99.90
11284;DHT22;5698;47.332;11.180;2023-03-21T10:07:59;8.20;99.90
11284;DHT22;5698;47.332;11.180;2023-03-21T10:10:32;8.20;99.90
11284;DHT22;5698;47.332;11.180;2023-03-21T10:13:01;8.30;99.90
11284;DHT22;5698;47.332;11.180;2023-03-21T10:15:28;8.50;99.90
11284;DHT22;5698;47.332;11.180;2023-03-21T10:17:58;8.60;99.90
11284;DHT22;5698;47.332;11.180;2023-03-21T10:20:29;8.70;99.90
11284;DHT22;5698;47.332;11.180;2023-03-21T10:22:58;8.80;99.90
11284;DHT22;5698;47.332;11.180;2023-03-21T10:25:31;9.00;99.90
11284;DHT22;5698;47.332;11.180;2023-03-21T10:28:00;9.10;99.90
11284;DHT22;5698;47.332;11.180;2023-03-21T10:30:34;9.20;99.90
11284;DHT22;5698;47.332;11.180;2023-03-21T10:33:06;9.30;99.90
11284;DHT22;5698;47.332;11.180;2023-03-21T10:35:35;9.40;99.90
11284;DHT22;5698;47.332;11.180;2023-03-21T10:38:05;9.50;99.90
11284;DHT22;5698;47.332;11.180;2023-03-21T10:40:34;9.70;99.90
11284;DHT22;5698;47.332;11.180;2023-03-21T10:43:35;9.80;99.90
11284;DHT22;5698;47.332;11.180;2023-03-21T10:46:06;9.70;99.90
11284;DHT22;5698;47.332;11.180;2023-03-21T10:48:36;9.70;99.90
11284;DHT22;5698;47.332;11.180;2023-03-21T10:51:06;9.70;99.90
11284;DHT22;5698;47.332;11.180;2023-03-21T10:53:37;9.70;99.90
11284;DHT22;5698;47.332;11.180;2023-03-21T10:56:08;9.80;99.90
11284;DHT22;5698;47.332;11.180;2023-03-21T10:58:39;9.90;99.90
11284;DHT22;5698;47.332;11.180;2023-03-21T11:01:11;10.00;99.90
11284;DHT22;5698;47.332;11.180;2023-03-21T11:03:42;10.10;99.90
11284;DHT22;5698;47.332;11.180;2023-03-21T11:06:14;10.10;99.90
11284;DHT22;5698;47.332;11.180;2023-03-21T11:08:46;10.20;99.90
11284;DHT22;5698;47.332;11.180;2023-03-21T11:11:23;10.20;99.90
11284;DHT22;5698;47.332;11.180;2023-03-21T11:13:57;10.10;99.90
11284;DHT22;5698;47.332;11.180;2023-03-21T11:16:25;10.20;99.90
11284;DHT22;5698;47.332;11.180;2023-03-21T11:18:59;10.30;99.90
11284;DHT22;5698;47.332;11.180;2023-03-21T11:21:27;10.50;99.90
11284;DHT22;5698;47.332;11.180;2023-03-21T11:24:02;10.70;99.90
11284;DHT22;5698;47.332;11.180;2023-03-21T11:26:34;10.90;99.90
11284;DHT22;5698;47.332;11.180;2023-03-21T11:29:11;11.00;99.90
11284;DHT22;5698;47.332;11.180;2023-03-21T11:31:42;11.00;99.90
11284;DHT22;5698;47.332;11.180;2023-03-21T11:34:24;11.00;99.90
11284;DHT22;5698;47.332;11.180;2023-03-21T11:36:57;11.10;99.90
11284;DHT22;5698;47.332;11.180;2023-03-21T11:39:33;11.20;99.90
11284;DHT22;5698;47.332;11.180;2023-03-21T11:42:03;11.40;99.90
11284;DHT22;5698;47.332;11.180;2023-03-21T11:44:33;11.40;99.50
11284;DHT22;5698;47.332;11.180;2023-03-21T11:47:01;11.50;99.90
11284;DHT22;5698;47.332;11.180;2023-03-21T11:49:28;11.60;99.90
11284;DHT22;5698;47.332;11.180;2023-03-21T11:52:17;11.70;99.90
11284;DHT22;5698;47.332;11.180;2023-03-21T11:55:06;11.80;99.80
11284;DHT22;5698;47.332;11.180;2023-03-21T11:57:43;11.80;98.40
11284;DHT22;5698;47.332;11.180;2023-03-21T12:00:18;11.80;97.50
11284;DHT22;5698;47.332;11.180;2023-03-21T12:03:16;11.90;98.80
11284;DHT22;5698;47.332;11.180;2023-03-21T12:05:52;11.90;98.80
11284;DHT22;5698;47.332;11.180;2023-03-21T12:08:27;11.90;99.90
11284;DHT22;5698;47.332;11.180;2023-03-21T12:11:04;11.90;97.50
11284;DHT22;5698;47.332;11.180;2023-03-21T12:13:51;11.90;97.50
11284;DHT22;5698;47.332;11.180;2023-03-21T12:16:33;11.90;98.20
11284;DHT22;5698;47.332;11.180;2023-03-21T12:19:14;11.90;97.30
11284;DHT22;5698;47.332;11.180;2023-03-21T12:21:51;11.90;97.50
11284;DHT22;5698;47.332;11.180;2023-03-21T12:24:22;11.70;94.50
11284;DHT22;5698;47.332;11.180;2023-03-21T12:26:55;11.50;94.30
11284;DHT22;5698;47.332;11.180;2023-03-21T12:29:35;11.40;94.80
11284;DHT22;5698;47.332;11.180;2023-03-21T12:32:16;11.50;96.00
11284;DHT22;5698;47.332;11.180;2023-03-21T12:35:19;11.60;97.60
11284;DHT22;5698;47.332;11.180;2023-03-21T12:37:56;11.70;95.70
11284;DHT22;5698;47.332;11.180;2023-03-21T12:40:38;11.80;97.20
11284;DHT22;5698;47.332;11.180;2023-03-21T12:43:23;11.90;98.00
11284;DHT22;5698;47.332;11.180;2023-03-21T12:45:56;12.00;97.80
11284;DHT22;5698;47.332;11.180;2023-03-21T12:48:32;12.00;97.60
11284;DHT22;5698;47.332;11.180;2023-03-21T12:51:06;12.10;96.40
11284;DHT22;5698;47.332;11.180;2023-03-21T12:53:48;12.00;95.10
11284;DHT22;5698;47.332;11.180;2023-03-21T12:56:20;12.00;96.60
11284;DHT22;5698;47.332;11.180;2023-03-21T12:58:53;12.10;94.10
11284;DHT22;5698;47.332;11.180;2023-03-21T13:01:22;12.00;94.30
11284;DHT22;5698;47.332;11.180;2023-03-21T13:04:03;12.10;96.10
11284;DHT22;5698;47.332;11.180;2023-03-21T13:06:32;12.20;94.60
11284;DHT22;5698;47.332;11.180;2023-03-21T13:09:05;12.10;94.80
11284;DHT22;5698;47.332;11.180;2023-03-21T13:11:34;12.10;94.90
11284;DHT22;5698;47.332;11.180;2023-03-21T13:14:04;12.10;96.30
11284;DHT22;5698;47.332;11.180;2023-03-21T13:16:35;12.10;97.00
11284;DHT22;5698;47.332;11.180;2023-03-21T13:19:10;11.90;96.70
11284;DHT22;5698;47.332;11.180;2023-03-21T13:21:43;11.80;96.10
11284;DHT22;5698;47.332;11.180;2023-03-21T13:24:25;11.60;96.00
11284;DHT22;5698;47.332;11.180;2023-03-21T13:26:58;11.50;96.10
11284;DHT22;5698;47.332;11.180;2023-03-21T13:29:29;11.50;95.80
11284;DHT22;5698;47.332;11.180;2023-03-21T13:32:07;11.40;95.30
11284;DHT22;5698;47.332;11.180;2023-03-21T13:34:37;11.50;94.70
11284;DHT22;5698;47.332;11.180;2023-03-21T13:37:14;11.50;94.30
11284;DHT22;5698;47.332;11.180;2023-03-21T13:39:44;11.60;94.20
11284;DHT22;5698;47.332;11.180;2023-03-21T13:42:20;11.70;93.50
11284;DHT22;5698;47.332;11.180;2023-03-21T13:44:52;11.80;94.50
11284;DHT22;5698;47.332;11.180;2023-03-21T13:47:38;12.00;95.10
11284;DHT22;5698;47.332;11.180;2023-03-21T13:50:26;12.20;95.30
11284;DHT22;5698;47.332;11.180;2023-03-21T13:53:22;12.50;95.30
11284;DHT22;5698;47.332;11.180;2023-03-21T13:56:06;12.90;94.60
11284;DHT22;5698;47.332;11.180;2023-03-21T13:58:36;13.00;90.90
11284;DHT22;5698;47.332;11.180;2023-03-21T14:01:23;13.10;91.30
11284;DHT22;5698;47.332;11.180;2023-03-21T14:04:09;13.20;92.70
11284;DHT22;5698;47.332;11.180;2023-03-21T14:06:42;13.50;93.60
11284;DHT22;5698;47.332;11.180;2023-03-21T14:09:17;13.80;92.60
11284;DHT22;5698;47.332;11.180;2023-03-21T14:11:46;14.00;92.50
11284;DHT22;5698;47.332;11.180;2023-03-21T14:14:14;14.10;92.60
11284;DHT22;5698;47.332;11.180;2023-03-21T14:16:43;14.30;92.90
11284;DHT22;5698;47.332;11.180;2023-03-21T14:19:11;14.40;92.70
11284;DHT22;5698;47.332;11.180;2023-03-21T14:21:46;14.40;91.50
11284;DHT22;5698;47.332;11.180;2023-03-21T14:24:16;14.50;91.70
11284;DHT22;5698;47.332;11.180;2023-03-21T14:26:46;14.50;91.60
11284;DHT22;5698;47.332;11.180;2023-03-21T14:29:19;14.50;91.80
11284;DHT22;5698;47.332;11.180;2023-03-21T14:31:47;14.50;91.20
11284;DHT22;5698;47.332;11.180;2023-03-21T14:34:16;14.40;90.70
11284;DHT22;5698;47.332;11.180;2023-03-21T14:36:44;14.40;91.10
11284;DHT22;5698;47.332;11.180;2023-03-21T14:39:14;14.40;92.00
11284;DHT22;5698;47.332;11.180;2023-03-21T14:41:45;14.50;91.50
11284;DHT22;5698;47.332;11.180;2023-03-21T14:44:18;14.40;92.20
11284;DHT22;5698;47.332;11.180;2023-03-21T14:46:50;14.30;92.90
11284;DHT22;5698;47.332;11.180;2023-03-21T14:49:23;14.20;93.10
11284;DHT22;5698;47.332;11.180;2023-03-21T14:51:52;14.20;93.70
11284;DHT22;5698;47.332;11.180;2023-03-21T14:54:21;14.10;92.90
11284;DHT22;5698;47.332;11.180;2023-03-21T14:56:50;14.00;92.10
11284;DHT22;5698;47.332;11.180;2023-03-21T14:59:20;14.00;93.50
11284;DHT22;5698;47.332;11.180;2023-03-21T15:01:49;13.90;93.90
11284;DHT22;5698;47.332;11.180;2023-03-21T15:04:19;14.10;93.90
11284;DHT22;5698;47.332;11.180;2023-03-21T15:06:54;14.10;94.20
11284;DHT22;5698;47.332;11.180;2023-03-21T15:09:24;14.00;94.10
11284;DHT22;5698;47.332;11.180;2023-03-21T15:11:54;13.60;94.40
11284;DHT22;5698;47.332;11.180;2023-03-21T15:14:25;13.30;94.90
11284;DHT22;5698;47.332;11.180;2023-03-21T15:16:53;13.00;94.90
11284;DHT22;5698;47.332;11.180;2023-03-21T15:19:28;12.90;95.00
11284;DHT22;5698;47.332;11.180;2023-03-21T15:21:58;12.70;94.80
11284;DHT22;5698;47.332;11.180;2023-03-21T15:24:29;12.60;95.00
11284;DHT22;5698;47.332;11.180;2023-03-21T15:27:00;12.50;95.00
11284;DHT22;5698;47.332;11.180;2023-03-21T15:29:28;12.30;95.70
11284;DHT22;5698;47.332;11.180;2023-03-21T15:31:55;12.20;95.80
11284;DHT22;5698;47.332;11.180;2023-03-21T15:34:27;12.10;96.00
11284;DHT22;5698;47.332;11.180;2023-03-21T15:36:56;12.10;96.20
11284;DHT22;5698;47.332;11.180;2023-03-21T15:39:27;12.10;96.30
11284;DHT22;5698;47.332;11.180;2023-03-21T15:41:57;12.00;96.00
11284;DHT22;5698;47.332;11.180;2023-03-21T15:44:25;12.00;96.40
11284;DHT22;5698;47.332;11.180;2023-03-21T15:46:52;12.10;96.80
11284;DHT22;5698;47.332;11.180;2023-03-21T15:49:26;12.20;97.00
11284;DHT22;5698;47.332;11.180;2023-03-21T15:52:00;12.10;97.40
11284;DHT22;5698;47.332;11.180;2023-03-21T15:54:30;12.10;97.70
11284;DHT22;5698;47.332;11.180;2023-03-21T15:56:58;12.10;97.50
11284;DHT22;5698;47.332;11.180;2023-03-21T15:59:32;12.10;97.50
11284;DHT22;5698;47.332;11.180;2023-03-21T16:02:01;12.10;97.60
11284;DHT22;5698;47.332;11.180;2023-03-21T16:04:30;12.20;97.70
11284;DHT22;5698;47.332;11.180;2023-03-21T16:06:59;12.20;97.30
11284;DHT22;5698;47.332;11.180;2023-03-21T16:09:27;12.20;95.60
11284;DHT22;5698;47.332;11.180;2023-03-21T16:12:09;12.20;95.60